TAF Text Data
IDs:
Format:
Raw Decoded Include METAR

Data at: 1644 UTC 20 May 2022

KEWN 201122Z 2012/2112 23008KT P6SM SCT250
  FM201600 22010G18KT P6SM FEW250
  FM210000 19008KT P6SM FEW250
  FM210400 20006KT P6SM FEW250 WS020/22035KT